Time;durP1;ratioP1;P1;durP2;ratioP2;P2;SDS_P1;SDS_P2;PMS_P1;PMS_P2;Temp;Humidity;BMP_temperature;BMP_pressure;BME280_temperature;BME280_humidity;BME280_pressure;Samples;Min_cycle;Max_cycle;Signal;HPM_P1;HPM_P2
2021/01/22 00:02:14;;;;;;;75.77;40.00;;;;;;;;;;4935749;29;20242;-86
2021/01/22 00:04:40;;;;;;;73.70;40.20;;;;;;;;;;4935762;29;20208;-86
2021/01/22 00:07:05;;;;;;;73.50;42.57;;;;;;;;;;4935392;29;20262;-86
2021/01/22 00:09:30;;;;;;;76.83;44.70;;;;;;;;;;4935215;29;20203;-86
2021/01/22 00:11:55;;;;;;;76.63;43.73;;;;;;;;;;4935024;29;20211;-86
2021/01/22 00:14:21;;;;;;;69.23;38.83;;;;;;;;;;4935541;29;20218;-86
2021/01/22 00:16:46;;;;;;;67.47;39.43;;;;;;;;;;4935412;29;20608;-85
2021/01/22 00:19:14;;;;;;;60.67;36.80;;;;;;;;;;4935720;29;20179;-85
2021/01/22 00:21:40;;;;;;;58.87;33.63;;;;;;;;;;4934381;29;20525;-86
2021/01/22 00:24:05;;;;;;;52.73;33.70;;;;;;;;;;4935478;29;20199;-86
2021/01/22 00:26:31;;;;;;;64.10;39.33;;;;;;;;;;4935352;29;20227;-85
2021/01/22 00:28:56;;;;;;;57.90;35.60;;;;;;;;;;4935701;29;20480;-86
2021/01/22 00:31:21;;;;;;;55.03;34.57;;;;;;;;;;4935057;29;20214;-86
2021/01/22 00:33:47;;;;;;;56.63;34.07;;;;;;;;;;4935458;29;20172;-86
2021/01/22 00:36:12;;;;;;;54.97;32.37;;;;;;;;;;4935346;29;20189;-86
2021/01/22 00:38:37;;;;;;;50.53;31.90;;;;;;;;;;4935082;29;20184;-86
2021/01/22 00:41:03;;;;;;;51.23;31.50;;;;;;;;;;4935427;29;20216;-86
2021/01/22 00:43:28;;;;;;;62.07;33.73;;;;;;;;;;4935058;29;20176;-86
2021/01/22 00:45:54;;;;;;;60.13;35.07;;;;;;;;;;4935394;29;20267;-86
2021/01/22 00:48:19;;;;;;;60.00;34.70;;;;;;;;;;4937074;29;20186;-86
2021/01/22 00:50:45;;;;;;;55.73;33.53;;;;;;;;;;4956423;28;20211;-87
2021/01/22 00:53:10;;;;;;;60.70;35.17;;;;;;;;;;4957876;29;20249;-86
2021/01/22 00:55:36;;;;;;;62.63;36.13;;;;;;;;;;4958054;29;20176;-87
2021/01/22 00:58:02;;;;;;;59.30;34.80;;;;;;;;;;4940589;29;20312;-86
2021/01/22 01:00:27;;;;;;;61.17;35.67;;;;;;;;;;4957494;29;20221;-87
2021/01/22 01:02:54;;;;;;;53.17;33.73;;;;;;;;;;4957788;28;20231;-87
2021/01/22 01:05:21;;;;;;;59.97;34.87;;;;;;;;;;4957769;29;20807;-86
2021/01/22 01:07:46;;;;;;;54.00;33.77;;;;;;;;;;4940432;29;20222;-86
2021/01/22 01:10:11;;;;;;;56.37;34.00;;;;;;;;;;4957398;28;20203;-86
2021/01/22 01:12:37;;;;;;;54.23;31.80;;;;;;;;;;4940332;29;20189;-87
2021/01/22 01:15:04;;;;;;;72.90;37.77;;;;;;;;;;4957270;28;20181;-87
2021/01/22 01:17:30;;;;;;;121.67;54.17;;;;;;;;;;4957638;29;20684;-86
2021/01/22 01:19:55;;;;;;;90.73;45.07;;;;;;;;;;4957369;28;20214;-87
2021/01/22 01:22:20;;;;;;;57.10;32.60;;;;;;;;;;4957720;29;20171;-87
2021/01/22 01:24:45;;;;;;;49.80;30.03;;;;;;;;;;4940514;29;20191;-87
2021/01/22 01:27:11;;;;;;;48.67;29.33;;;;;;;;;;4940650;29;20175;-87
2021/01/22 01:29:36;;;;;;;48.27;28.63;;;;;;;;;;4940935;29;20184;-88
2021/01/22 01:32:01;;;;;;;46.13;27.80;;;;;;;;;;4957700;28;20203;-87
2021/01/22 01:34:27;;;;;;;43.93;28.20;;;;;;;;;;4958399;29;20172;-88
2021/01/22 01:36:52;;;;;;;44.70;28.23;;;;;;;;;;4957799;29;20195;-87
2021/01/22 01:39:17;;;;;;;48.23;28.87;;;;;;;;;;4958317;29;20185;-88
2021/01/22 01:41:43;;;;;;;45.73;26.93;;;;;;;;;;4958285;29;20183;-87
2021/01/22 01:44:08;;;;;;;48.23;28.93;;;;;;;;;;4957930;28;20258;-88
2021/01/22 01:46:34;;;;;;;46.73;28.00;;;;;;;;;;4958541;28;20522;-87
2021/01/22 01:48:59;;;;;;;45.90;27.97;;;;;;;;;;4957922;28;20171;-88
2021/01/22 01:51:25;;;;;;;45.83;27.37;;;;;;;;;;4957506;28;20654;-87
2021/01/22 01:53:50;;;;;;;45.40;26.90;;;;;;;;;;4958016;28;20521;-86
2021/01/22 01:56:15;;;;;;;44.20;27.60;;;;;;;;;;4958077;29;20175;-87
2021/01/22 01:58:41;;;;;;;46.70;28.07;;;;;;;;;;4957966;29;20172;-87
2021/01/22 02:01:09;;;;;;;46.40;29.17;;;;;;;;;;4957238;28;20554;-87
2021/01/22 02:03:35;;;;;;;41.93;27.30;;;;;;;;;;4957598;28;20178;-87
2021/01/22 02:06:00;;;;;;;44.80;27.57;;;;;;;;;;4957853;28;20176;-87
2021/01/22 02:08:26;;;;;;;49.63;30.23;;;;;;;;;;4957227;28;20581;-87
2021/01/22 02:10:51;;;;;;;49.77;31.53;;;;;;;;;;4957355;28;20724;-87
2021/01/22 02:13:17;;;;;;;53.37;33.10;;;;;;;;;;4957445;28;20226;-87
2021/01/22 02:15:42;;;;;;;57.47;34.47;;;;;;;;;;4957334;29;20172;-87
2021/01/22 02:18:08;;;;;;;60.47;37.53;;;;;;;;;;4957041;29;20202;-87
2021/01/22 02:20:46;;;;;;;61.83;36.37;;;;;;;;;;4957537;28;20186;-87
2021/01/22 02:23:13;;;;;;;56.63;34.30;;;;;;;;;;4956974;28;20585;-87
2021/01/22 02:25:42;;;;;;;84.20;42.43;;;;;;;;;;4957183;29;20242;-87
2021/01/22 02:28:17;;;;;;;141.00;72.90;;;;;;;;;;4957435;29;20615;-87
2021/01/22 02:30:47;;;;;;;93.47;52.00;;;;;;;;;;4956883;29;20206;-86
2021/01/22 02:33:13;;;;;;;71.00;39.87;;;;;;;;;;4957110;29;20170;-86
2021/01/22 02:35:39;;;;;;;69.67;39.27;;;;;;;;;;4940331;29;20179;-86
2021/01/22 02:38:05;;;;;;;61.97;35.17;;;;;;;;;;4956932;29;20674;-86
2021/01/22 02:40:31;;;;;;;62.03;35.07;;;;;;;;;;4956902;28;20184;-86
2021/01/22 02:42:56;;;;;;;57.93;33.83;;;;;;;;;;4956939;28;20622;-86
2021/01/22 02:45:22;;;;;;;53.00;32.33;;;;;;;;;;4939550;29;20187;-87
2021/01/22 02:47:50;;;;;;;52.60;32.53;;;;;;;;;;4956581;29;20171;-86
2021/01/22 02:50:16;;;;;;;51.77;31.00;;;;;;;;;;4956903;29;20211;-86
2021/01/22 02:52:41;;;;;;;53.73;30.40;;;;;;;;;;4957508;28;20306;-86
2021/01/22 02:55:06;;;;;;;51.03;30.17;;;;;;;;;;4956701;29;20630;-86
2021/01/22 02:57:56;;;;;;;55.67;33.33;;;;;;;;;;4956915;28;20186;-86
2021/01/22 03:00:25;;;;;;;63.43;34.80;;;;;;;;;;4956788;29;20171;-86
2021/01/22 03:02:56;;;;;;;66.97;36.60;;;;;;;;;;4956274;28;20239;-86
2021/01/22 03:05:23;;;;;;;61.23;35.70;;;;;;;;;;4956555;28;20258;-86
2021/01/22 03:07:57;;;;;;;70.77;36.20;;;;;;;;;;4956697;29;20634;-86
2021/01/22 03:10:24;;;;;;;57.43;33.07;;;;;;;;;;4956273;28;20670;-87
2021/01/22 03:12:51;;;;;;;49.67;29.93;;;;;;;;;;4955569;28;20631;-87
2021/01/22 03:15:17;;;;;;;50.70;29.13;;;;;;;;;;4956030;29;20175;-87
2021/01/22 03:17:42;;;;;;;42.67;26.60;;;;;;;;;;4956014;28;20175;-86
2021/01/22 03:20:09;;;;;;;39.57;24.40;;;;;;;;;;4956484;28;20614;-86
2021/01/22 03:22:35;;;;;;;39.60;25.50;;;;;;;;;;4955961;29;20175;-86
2021/01/22 03:25:00;;;;;;;43.40;27.90;;;;;;;;;;4956387;28;20641;-86
2021/01/22 03:27:25;;;;;;;40.37;24.10;;;;;;;;;;4955886;28;20175;-87
2021/01/22 03:29:51;;;;;;;36.47;21.73;;;;;;;;;;4939040;29;20219;-86
2021/01/22 03:32:16;;;;;;;36.63;24.67;;;;;;;;;;4955987;28;20211;-86
2021/01/22 03:34:41;;;;;;;31.97;21.10;;;;;;;;;;4955965;28;20262;-86
2021/01/22 03:37:07;;;;;;;31.67;20.10;;;;;;;;;;4956011;28;20177;-86
2021/01/22 03:39:34;;;;;;;36.20;22.00;;;;;;;;;;4956182;28;20231;-86
2021/01/22 03:41:59;;;;;;;33.63;20.63;;;;;;;;;;4956295;29;20191;-86
2021/01/22 03:44:24;;;;;;;31.73;20.10;;;;;;;;;;4956001;29;20179;-86
2021/01/22 03:46:50;;;;;;;29.70;19.67;;;;;;;;;;4955864;28;20541;-86
2021/01/22 03:49:15;;;;;;;29.43;19.00;;;;;;;;;;4955764;28;20182;-86
2021/01/22 03:51:40;;;;;;;33.07;23.70;;;;;;;;;;4955535;29;20246;-86
2021/01/22 03:54:06;;;;;;;27.23;18.83;;;;;;;;;;4955598;28;20261;-86
2021/01/22 03:56:31;;;;;;;28.20;18.97;;;;;;;;;;4956042;29;20262;-86
2021/01/22 03:58:57;;;;;;;30.37;20.63;;;;;;;;;;4955463;28;20199;-86
2021/01/22 04:01:22;;;;;;;31.57;20.80;;;;;;;;;;4955707;28;20237;-85
2021/01/22 04:03:51;;;;;;;31.73;20.80;;;;;;;;;;4955738;28;20209;-86
2021/01/22 04:06:16;;;;;;;36.33;22.77;;;;;;;;;;4955414;28;20507;-86
2021/01/22 04:08:41;;;;;;;33.70;22.70;;;;;;;;;;4955561;28;20266;-85
2021/01/22 04:11:07;;;;;;;34.87;22.23;;;;;;;;;;4955275;29;20202;-86
2021/01/22 04:13:32;;;;;;;34.70;24.93;;;;;;;;;;4955347;29;20172;-86
2021/01/22 04:15:58;;;;;;;34.77;21.80;;;;;;;;;;4955283;28;20167;-86
2021/01/22 04:18:23;;;;;;;35.70;21.97;;;;;;;;;;4955797;29;20194;-86
2021/01/22 04:20:48;;;;;;;42.10;30.00;;;;;;;;;;4955500;28;20215;-86
2021/01/22 04:23:14;;;;;;;39.93;26.07;;;;;;;;;;4938597;29;20217;-86
2021/01/22 04:25:39;;;;;;;36.00;25.50;;;;;;;;;;4957862;28;20218;-86
2021/01/22 04:28:04;;;;;;;38.50;25.67;;;;;;;;;;4959075;28;20187;-86
2021/01/22 04:30:30;;;;;;;43.63;32.67;;;;;;;;;;4959481;28;20554;-86
2021/01/22 04:32:55;;;;;;;36.43;26.30;;;;;;;;;;4958949;28;20175;-86
2021/01/22 04:35:20;;;;;;;41.00;29.47;;;;;;;;;;4959458;28;20499;-86
2021/01/22 04:37:46;;;;;;;30.93;20.83;;;;;;;;;;4959420;29;20615;-86
2021/01/22 04:40:11;;;;;;;40.13;25.20;;;;;;;;;;4958807;28;20619;-86
2021/01/22 04:42:40;;;;;;;62.70;38.53;;;;;;;;;;4958725;29;20176;-86
2021/01/22 04:45:09;;;;;;;62.80;36.90;;;;;;;;;;4958887;29;20171;-86
2021/01/22 04:47:35;;;;;;;50.20;30.67;;;;;;;;;;4958993;29;20214;-86
2021/01/22 04:50:01;;;;;;;48.63;26.67;;;;;;;;;;4958611;29;20642;-86
2021/01/22 04:52:27;;;;;;;37.67;23.47;;;;;;;;;;4959225;29;20186;-86
2021/01/22 04:54:53;;;;;;;40.47;24.93;;;;;;;;;;4941610;29;20266;-86
2021/01/22 04:57:19;;;;;;;38.07;24.40;;;;;;;;;;4958582;28;20624;-86
2021/01/22 04:59:49;;;;;;;51.20;34.10;;;;;;;;;;4942282;29;20275;-86
2021/01/22 05:02:14;;;;;;;54.83;35.43;;;;;;;;;;4958946;28;20725;-86
2021/01/22 05:04:40;;;;;;;37.27;23.77;;;;;;;;;;4958940;29;20195;-86
2021/01/22 05:07:07;;;;;;;39.13;25.17;;;;;;;;;;4958696;28;20210;-86
2021/01/22 05:09:32;;;;;;;42.70;24.40;;;;;;;;;;4958335;28;20179;-86
2021/01/22 05:11:57;;;;;;;35.33;20.80;;;;;;;;;;4958258;29;20199;-86
2021/01/22 05:14:22;;;;;;;36.37;22.23;;;;;;;;;;4958758;28;20175;-85
2021/01/22 05:17:03;;;;;;;45.00;24.53;;;;;;;;;;4958223;28;20200;-85
2021/01/22 05:19:29;;;;;;;45.30;24.80;;;;;;;;;;4959005;28;20329;-86
2021/01/22 05:21:54;;;;;;;60.63;32.93;;;;;;;;;;4958636;29;20265;-86
2021/01/22 05:24:24;;;;;;;37.70;24.03;;;;;;;;;;4958534;28;20176;-87
2021/01/22 05:27:02;;;;;;;33.97;22.60;;;;;;;;;;4958263;28;20172;-87
2021/01/22 05:29:28;;;;;;;39.10;22.80;;;;;;;;;;4958223;29;20542;-87
2021/01/22 05:31:54;;;;;;;38.00;20.67;;;;;;;;;;4958192;29;20211;-88
2021/01/22 05:34:19;;;;;;;36.50;18.67;;;;;;;;;;4957883;28;20634;-87
2021/01/22 05:36:46;;;;;;;25.10;16.90;;;;;;;;;;4957924;28;20175;-87
2021/01/22 05:39:19;;;;;;;25.17;17.77;;;;;;;;;;4958439;28;20222;-86
2021/01/22 05:41:51;;;;;;;24.33;16.57;;;;;;;;;;4957758;29;20183;-87
2021/01/22 05:44:24;;;;;;;25.13;16.53;;;;;;;;;;4958061;28;20182;-86
2021/01/22 05:46:59;;;;;;;28.20;19.60;;;;;;;;;;4957893;28;20175;-86
2021/01/22 05:49:25;;;;;;;28.67;18.40;;;;;;;;;;4957634;29;20262;-86
2021/01/22 05:51:51;;;;;;;25.83;19.27;;;;;;;;;;4957726;29;20347;-86
2021/01/22 05:54:34;;;;;;;39.00;24.53;;;;;;;;;;4957816;29;20190;-86
2021/01/22 05:57:00;;;;;;;44.00;25.13;;;;;;;;;;4957513;28;20258;-86
2021/01/22 05:59:28;;;;;;;31.13;19.57;;;;;;;;;;4957476;28;20599;-86
2021/01/22 06:01:54;;;;;;;28.23;18.97;;;;;;;;;;4957437;28;20269;-86
2021/01/22 06:04:19;;;;;;;27.27;18.23;;;;;;;;;;4957627;28;20208;-86
2021/01/22 06:06:44;;;;;;;28.37;19.23;;;;;;;;;;4957845;28;20167;-86
2021/01/22 06:09:10;;;;;;;26.40;18.20;;;;;;;;;;4957561;28;20175;-86
2021/01/22 06:11:36;;;;;;;25.73;18.80;;;;;;;;;;4957198;29;20341;-86
2021/01/22 06:14:05;;;;;;;32.97;23.37;;;;;;;;;;4957167;28;20539;-86
2021/01/22 06:16:30;;;;;;;37.20;24.97;;;;;;;;;;4957865;28;20179;-86
2021/01/22 06:18:57;;;;;;;42.73;25.87;;;;;;;;;;4956893;28;20191;-85
2021/01/22 06:21:28;;;;;;;39.47;25.13;;;;;;;;;;4956998;28;20175;-85
2021/01/22 06:23:53;;;;;;;34.13;22.47;;;;;;;;;;4957518;29;20631;-86
2021/01/22 06:26:19;;;;;;;38.53;22.17;;;;;;;;;;4957262;29;20167;-86
2021/01/22 06:28:46;;;;;;;40.47;23.97;;;;;;;;;;4957169;28;20619;-86
2021/01/22 06:31:11;;;;;;;34.80;22.53;;;;;;;;;;4957011;28;20211;-85
2021/01/22 06:33:38;;;;;;;28.83;19.93;;;;;;;;;;4939825;29;20186;-85
2021/01/22 06:36:06;;;;;;;33.53;22.53;;;;;;;;;;4956726;28;20171;-86
2021/01/22 06:38:32;;;;;;;39.27;24.53;;;;;;;;;;4956940;29;20207;-86
2021/01/22 06:40:58;;;;;;;46.13;27.33;;;;;;;;;;4956692;29;20682;-85
2021/01/22 06:43:24;;;;;;;48.73;28.83;;;;;;;;;;4957201;28;20199;-85
2021/01/22 06:45:49;;;;;;;56.50;34.73;;;;;;;;;;4957068;28;20202;-86
2021/01/22 06:48:15;;;;;;;67.60;40.53;;;;;;;;;;4955714;28;20175;-86
2021/01/22 06:50:40;;;;;;;73.67;45.87;;;;;;;;;;4956912;28;20203;-86
2021/01/22 06:53:06;;;;;;;64.17;41.80;;;;;;;;;;4956415;28;20217;-85
2021/01/22 06:55:32;;;;;;;70.37;45.00;;;;;;;;;;4956279;28;20216;-85
2021/01/22 06:58:16;;;;;;;77.00;44.70;;;;;;;;;;4956625;29;20198;-85
2021/01/22 07:00:41;;;;;;;138.10;74.40;;;;;;;;;;4956270;28;20226;-86
2021/01/22 07:03:07;;;;;;;155.60;91.80;;;;;;;;;;4956515;29;20697;-86
2021/01/22 07:05:32;;;;;;;127.00;72.67;;;;;;;;;;4957228;28;20183;-86
2021/01/22 07:07:57;;;;;;;141.13;72.67;;;;;;;;;;4956473;28;20520;-86
2021/01/22 07:10:42;;;;;;;145.80;74.93;;;;;;;;;;4956590;28;20268;-86
2021/01/22 07:13:28;;;;;;;119.17;63.97;;;;;;;;;;4956117;29;20182;-86
2021/01/22 07:15:59;;;;;;;159.20;82.63;;;;;;;;;;4956511;29;20175;-86
2021/01/22 07:18:26;;;;;;;113.93;62.67;;;;;;;;;;4956270;29;20170;-86
2021/01/22 07:21:11;;;;;;;102.43;60.27;;;;;;;;;;4956478;28;20194;-86
2021/01/22 07:23:36;;;;;;;118.07;69.17;;;;;;;;;;4956913;29;20221;-86
2021/01/22 07:26:02;;;;;;;123.17;68.47;;;;;;;;;;4954679;29;20206;-86
2021/01/22 07:28:27;;;;;;;117.93;67.60;;;;;;;;;;4956624;29;20206;-86
2021/01/22 07:30:53;;;;;;;93.23;55.83;;;;;;;;;;4955974;29;20293;-86
2021/01/22 07:33:27;;;;;;;88.03;57.77;;;;;;;;;;4938829;29;20218;-86
2021/01/22 07:36:09;;;;;;;80.40;49.93;;;;;;;;;;4955694;29;20179;-85
2021/01/22 07:38:35;;;;;;;92.37;55.23;;;;;;;;;;4955644;29;20179;-84
2021/01/22 07:41:00;;;;;;;98.53;61.77;;;;;;;;;;4955923;29;20512;-85
2021/01/22 07:43:26;;;;;;;68.13;46.67;;;;;;;;;;4955596;29;20614;-85
2021/01/22 07:46:02;;;;;;;73.80;49.17;;;;;;;;;;4956065;29;20167;-85
2021/01/22 07:48:28;;;;;;;65.20;44.27;;;;;;;;;;4955737;29;20164;-85
2021/01/22 07:50:53;;;;;;;74.90;48.77;;;;;;;;;;4938289;29;20246;-85
2021/01/22 07:53:19;;;;;;;61.93;43.17;;;;;;;;;;4955769;29;20198;-85
2021/01/22 07:55:54;;;;;;;53.67;37.93;;;;;;;;;;4955487;29;20566;-85
2021/01/22 07:58:20;;;;;;;56.93;40.60;;;;;;;;;;4955784;29;20202;-86
2021/01/22 08:00:46;;;;;;;56.50;39.20;;;;;;;;;;4955640;28;20183;-86
2021/01/22 08:03:13;;;;;;;114.23;69.27;;;;;;;;;;4955688;29;20159;-86
2021/01/22 08:05:39;;;;;;;507.37;263.90;;;;;;;;;;4955407;29;20530;-86
2021/01/22 08:08:16;;;;;;;257.53;140.50;;;;;;;;;;4954531;29;20189;-85
2021/01/22 08:10:41;;;;;;;216.53;131.77;;;;;;;;;;4954629;29;20300;-86
2021/01/22 08:13:06;;;;;;;121.73;89.73;;;;;;;;;;4954364;29;20231;-86
2021/01/22 08:15:32;;;;;;;51.93;40.63;;;;;;;;;;4937312;29;20182;-86
2021/01/22 08:17:57;;;;;;;59.97;48.17;;;;;;;;;;4955050;29;20180;-85
2021/01/22 08:20:23;;;;;;;62.77;52.67;;;;;;;;;;4956039;29;20167;-84
2021/01/22 08:22:55;;;;;;;42.10;33.53;;;;;;;;;;4945731;29;20500;-85
2021/01/22 08:25:31;;;;;;;52.47;43.73;;;;;;;;;;4954231;29;20238;-85
2021/01/22 08:27:57;;;;;;;47.57;35.03;;;;;;;;;;4954754;29;20179;-85
2021/01/22 08:30:24;;;;;;;49.00;35.20;;;;;;;;;;4955071;29;20179;-86
2021/01/22 08:32:49;;;;;;;70.00;49.73;;;;;;;;;;4955107;29;20242;-86
2021/01/22 08:35:15;;;;;;;65.27;46.07;;;;;;;;;;4956703;29;20202;-85
2021/01/22 08:37:40;;;;;;;55.93;40.27;;;;;;;;;;4955179;29;20175;-86
2021/01/22 08:40:06;;;;;;;61.20;45.13;;;;;;;;;;4953462;29;20199;-86
2021/01/22 08:42:32;;;;;;;76.33;53.57;;;;;;;;;;4954708;29;20182;-85
2021/01/22 08:44:58;;;;;;;45.90;33.27;;;;;;;;;;4953061;28;20523;-85
2021/01/22 08:47:25;;;;;;;36.20;28.33;;;;;;;;;;4954073;29;20199;-86
2021/01/22 08:49:54;;;;;;;37.10;29.60;;;;;;;;;;4954760;29;20179;-86
2021/01/22 08:52:22;;;;;;;35.73;26.77;;;;;;;;;;4955278;29;20241;-87
2021/01/22 08:54:58;;;;;;;37.57;29.50;;;;;;;;;;4955008;29;20167;-87
2021/01/22 08:57:24;;;;;;;41.23;30.47;;;;;;;;;;4952472;29;20178;-86
2021/01/22 08:59:53;;;;;;;41.23;31.27;;;;;;;;;;4955233;29;20172;-86
2021/01/22 09:02:35;;;;;;;41.70;29.27;;;;;;;;;;4955421;29;20239;-86
2021/01/22 09:05:08;;;;;;;35.37;25.87;;;;;;;;;;4953851;29;20237;-86
2021/01/22 09:07:33;;;;;;;33.00;24.60;;;;;;;;;;4953692;29;20175;-86
2021/01/22 09:09:59;;;;;;;37.23;25.87;;;;;;;;;;4953668;28;20237;-85
2021/01/22 09:12:25;;;;;;;43.30;30.53;;;;;;;;;;4956518;29;20203;-85
2021/01/22 09:14:52;;;;;;;35.47;25.53;;;;;;;;;;4940040;29;20528;-85
2021/01/22 09:17:32;;;;;;;31.63;22.37;;;;;;;;;;4940231;29;20537;-85
2021/01/22 09:19:59;;;;;;;26.97;19.90;;;;;;;;;;4957200;29;20635;-85
2021/01/22 09:22:25;;;;;;;28.03;21.40;;;;;;;;;;4957047;29;20626;-86
2021/01/22 09:24:50;;;;;;;31.80;24.17;;;;;;;;;;4940713;29;20183;-86
2021/01/22 09:27:15;;;;;;;43.93;30.23;;;;;;;;;;4957972;29;20508;-85
2021/01/22 09:29:41;;;;;;;31.63;22.67;;;;;;;;;;4957549;29;20203;-85
2021/01/22 09:32:06;;;;;;;45.10;28.47;;;;;;;;;;4940927;29;20262;-85
2021/01/22 09:34:32;;;;;;;27.10;20.27;;;;;;;;;;4958163;29;20582;-85
2021/01/22 09:36:59;;;;;;;29.40;20.63;;;;;;;;;;4958444;29;20614;-85
2021/01/22 09:39:24;;;;;;;27.57;20.53;;;;;;;;;;4956538;29;20190;-85
2021/01/22 09:41:50;;;;;;;41.93;29.50;;;;;;;;;;4940900;29;20183;-86
2021/01/22 09:44:16;;;;;;;32.33;23.07;;;;;;;;;;4957165;29;20637;-86
2021/01/22 09:46:41;;;;;;;34.47;22.70;;;;;;;;;;4955688;29;20242;-87
2021/01/22 09:49:07;;;;;;;26.20;20.57;;;;;;;;;;4956244;29;20566;-86
2021/01/22 09:51:32;;;;;;;28.13;22.03;;;;;;;;;;4938761;29;20713;-86
2021/01/22 09:53:57;;;;;;;24.90;19.80;;;;;;;;;;4955326;29;20690;-86
2021/01/22 09:56:23;;;;;;;20.83;16.60;;;;;;;;;;4956143;29;20175;-87
2021/01/22 09:58:48;;;;;;;21.50;17.27;;;;;;;;;;4955625;29;20542;-86
2021/01/22 10:01:13;;;;;;;27.47;20.77;;;;;;;;;;4955650;29;20358;-87
2021/01/22 10:03:39;;;;;;;26.10;19.77;;;;;;;;;;4957316;29;20269;-85
2021/01/22 10:06:04;;;;;;;27.17;20.13;;;;;;;;;;4957322;29;20254;-86
2021/01/22 10:08:29;;;;;;;29.97;24.17;;;;;;;;;;4956664;29;20539;-85
2021/01/22 10:10:55;;;;;;;25.20;19.60;;;;;;;;;;4953386;29;20317;-84
2021/01/22 10:13:20;;;;;;;19.87;15.90;;;;;;;;;;4946908;29;20617;-85
2021/01/22 10:15:45;;;;;;;24.83;19.27;;;;;;;;;;4943440;29;20655;-85
2021/01/22 10:18:11;;;;;;;23.23;18.23;;;;;;;;;;4938760;29;20270;-86
2021/01/22 10:20:38;;;;;;;20.83;15.20;;;;;;;;;;4938582;29;20184;-86
2021/01/22 10:23:04;;;;;;;20.53;15.30;;;;;;;;;;4935367;29;20534;-85
2021/01/22 10:25:29;;;;;;;18.53;13.93;;;;;;;;;;4935998;29;20168;-85
2021/01/22 10:27:54;;;;;;;20.87;15.47;;;;;;;;;;4943176;29;20179;-85
2021/01/22 10:30:20;;;;;;;21.43;15.70;;;;;;;;;;4956002;29;20254;-85
2021/01/22 10:32:46;;;;;;;21.93;16.53;;;;;;;;;;4955981;29;20198;-87
2021/01/22 10:35:11;;;;;;;23.07;15.93;;;;;;;;;;4956209;29;20207;-85
2021/01/22 10:37:37;;;;;;;19.53;15.10;;;;;;;;;;4956049;29;20175;-86
2021/01/22 10:40:03;;;;;;;18.70;14.43;;;;;;;;;;4955895;29;20175;-85
2021/01/22 10:42:28;;;;;;;26.30;18.80;;;;;;;;;;4956209;29;20210;-85
2021/01/22 10:44:53;;;;;;;25.30;18.83;;;;;;;;;;4950933;29;20216;-85
2021/01/22 10:47:19;;;;;;;35.77;24.37;;;;;;;;;;4954966;29;20643;-86
2021/01/22 10:49:44;;;;;;;34.07;23.13;;;;;;;;;;4955486;29;20175;-85
2021/01/22 10:52:09;;;;;;;24.33;17.67;;;;;;;;;;4955558;29;20230;-84
2021/01/22 10:54:34;;;;;;;21.27;16.00;;;;;;;;;;4955746;29;20199;-84
2021/01/22 10:57:00;;;;;;;29.50;21.43;;;;;;;;;;4955905;29;20278;-85
2021/01/22 10:59:25;;;;;;;20.83;15.07;;;;;;;;;;4955961;29;20568;-84
2021/01/22 11:01:51;;;;;;;31.03;22.20;;;;;;;;;;4955213;28;20701;-85
2021/01/22 11:04:21;;;;;;;30.97;21.27;;;;;;;;;;4953936;29;20179;-85
2021/01/22 11:06:46;;;;;;;34.07;23.77;;;;;;;;;;4955356;29;20972;-85
2021/01/22 11:09:12;;;;;;;25.13;17.67;;;;;;;;;;4955621;29;20205;-85
2021/01/22 11:11:37;;;;;;;22.70;15.53;;;;;;;;;;4924742;29;20532;-86
2021/01/22 11:14:02;;;;;;;31.03;23.43;;;;;;;;;;4935591;29;20183;-84
2021/01/22 11:16:29;;;;;;;38.40;27.13;;;;;;;;;;4934613;29;20187;-84
2021/01/22 11:18:54;;;;;;;21.47;16.07;;;;;;;;;;4939111;29;20171;-84
2021/01/22 11:21:19;;;;;;;23.37;17.90;;;;;;;;;;4953999;29;20202;-84
2021/01/22 11:23:44;;;;;;;22.40;16.60;;;;;;;;;;4954947;29;20175;-84
2021/01/22 11:26:10;;;;;;;33.13;22.43;;;;;;;;;;4955218;29;20213;-84
2021/01/22 11:28:35;;;;;;;35.83;25.33;;;;;;;;;;4955278;29;20263;-83
2021/01/22 11:31:02;;;;;;;38.90;26.73;;;;;;;;;;4937708;29;20249;-83
2021/01/22 11:33:27;;;;;;;22.20;16.90;;;;;;;;;;4937299;29;20183;-83
2021/01/22 11:35:53;;;;;;;24.50;18.30;;;;;;;;;;4954930;29;20529;-83
2021/01/22 11:38:18;;;;;;;25.40;20.17;;;;;;;;;;4955171;29;20615;-84
2021/01/22 11:40:44;;;;;;;22.37;16.90;;;;;;;;;;4937706;29;20534;-86
2021/01/22 11:43:09;;;;;;;25.43;19.53;;;;;;;;;;4938001;29;20183;-86
2021/01/22 11:45:35;;;;;;;21.30;17.40;;;;;;;;;;4955126;29;20175;-85
2021/01/22 11:48:00;;;;;;;28.17;21.60;;;;;;;;;;4954811;29;20654;-85
2021/01/22 11:50:25;;;;;;;31.23;23.63;;;;;;;;;;4954852;29;20199;-86
2021/01/22 11:52:51;;;;;;;28.67;20.43;;;;;;;;;;4937429;29;21023;-86
2021/01/22 11:55:16;;;;;;;24.13;18.50;;;;;;;;;;4953998;28;20172;-86
2021/01/22 11:57:41;;;;;;;22.73;16.63;;;;;;;;;;4954474;29;20183;-86
2021/01/22 12:00:07;;;;;;;32.77;20.33;;;;;;;;;;4955100;29;20186;-86
2021/01/22 12:02:32;;;;;;;28.03;19.67;;;;;;;;;;4954427;28;20230;-86
2021/01/22 12:04:58;;;;;;;30.10;22.20;;;;;;;;;;4954146;29;20192;-86
2021/01/22 12:07:23;;;;;;;20.83;14.63;;;;;;;;;;4954650;29;20182;-85
2021/01/22 12:09:48;;;;;;;21.40;15.53;;;;;;;;;;4954432;29;20167;-85
2021/01/22 12:12:14;;;;;;;20.37;14.33;;;;;;;;;;4955000;29;20250;-86
2021/01/22 12:14:39;;;;;;;23.63;15.10;;;;;;;;;;4954474;29;20262;-86
2021/01/22 12:17:04;;;;;;;22.87;16.07;;;;;;;;;;4954505;29;20527;-85
2021/01/22 12:19:31;;;;;;;18.67;14.73;;;;;;;;;;4954837;29;20308;-86
2021/01/22 12:21:56;;;;;;;35.37;23.33;;;;;;;;;;4955065;29;20229;-86
2021/01/22 12:24:22;;;;;;;20.27;14.70;;;;;;;;;;4954548;29;20657;-85
2021/01/22 12:26:47;;;;;;;19.50;15.00;;;;;;;;;;4954892;29;20266;-85
2021/01/22 12:29:12;;;;;;;16.70;12.07;;;;;;;;;;4955145;29;20171;-87
2021/01/22 12:31:38;;;;;;;18.60;14.17;;;;;;;;;;4954381;29;20207;-87
2021/01/22 12:34:03;;;;;;;18.47;14.00;;;;;;;;;;4954509;29;20172;-87
2021/01/22 12:36:30;;;;;;;13.20;11.63;;;;;;;;;;4954559;29;20172;-87
2021/01/22 12:38:55;;;;;;;17.97;13.03;;;;;;;;;;4947459;29;20241;-87
2021/01/22 12:41:21;;;;;;;23.10;18.13;;;;;;;;;;4952101;29;20293;-87
2021/01/22 12:43:46;;;;;;;21.47;16.23;;;;;;;;;;4954590;29;20186;-87
2021/01/22 12:46:12;;;;;;;24.67;17.80;;;;;;;;;;4965046;28;20637;-86
2021/01/22 12:48:37;;;;;;;24.30;17.27;;;;;;;;;;4970056;28;20187;-86
2021/01/22 12:51:03;;;;;;;23.97;15.83;;;;;;;;;;4958469;29;20207;-86
2021/01/22 12:53:28;;;;;;;28.17;21.20;;;;;;;;;;4957874;29;20651;-85
2021/01/22 12:55:53;;;;;;;22.67;17.50;;;;;;;;;;4958166;29;20559;-86
2021/01/22 12:58:19;;;;;;;31.63;24.90;;;;;;;;;;4957982;29;20180;-86
2021/01/22 13:00:44;;;;;;;31.97;24.13;;;;;;;;;;4957612;29;20180;-85
2021/01/22 13:03:10;;;;;;;38.67;29.30;;;;;;;;;;4957829;28;20246;-85
2021/01/22 13:05:35;;;;;;;29.70;24.17;;;;;;;;;;4957921;29;20176;-85
2021/01/22 13:08:01;;;;;;;29.80;23.27;;;;;;;;;;4957406;29;20186;-86
2021/01/22 13:10:26;;;;;;;22.93;17.50;;;;;;;;;;4957701;29;20229;-85
2021/01/22 13:12:51;;;;;;;21.07;15.80;;;;;;;;;;4957935;29;20175;-83
2021/01/22 13:15:17;;;;;;;25.03;18.77;;;;;;;;;;4957438;29;20515;-83
2021/01/22 13:17:42;;;;;;;32.50;26.37;;;;;;;;;;4957675;29;20203;-84
2021/01/22 13:20:08;;;;;;;35.33;28.03;;;;;;;;;;4957494;29;20175;-84
2021/01/22 13:22:34;;;;;;;29.63;22.73;;;;;;;;;;4957297;29;20175;-84
2021/01/22 13:25:00;;;;;;;45.00;35.07;;;;;;;;;;4957215;29;20175;-84
2021/01/22 13:27:26;;;;;;;84.93;64.00;;;;;;;;;;4957534;29;20179;-84
2021/01/22 13:29:52;;;;;;;52.40;39.60;;;;;;;;;;4957384;29;20186;-84
2021/01/22 13:32:18;;;;;;;46.07;35.70;;;;;;;;;;4957299;29;20592;-84
2021/01/22 13:34:44;;;;;;;38.60;27.77;;;;;;;;;;4957034;29;20669;-84
2021/01/22 13:37:09;;;;;;;42.17;28.27;;;;;;;;;;4955626;29;20203;-84
2021/01/22 13:39:35;;;;;;;50.70;33.13;;;;;;;;;;4956942;29;20194;-84
2021/01/22 13:42:00;;;;;;;59.23;43.00;;;;;;;;;;4956768;28;20559;-84
2021/01/22 13:44:25;;;;;;;60.57;47.30;;;;;;;;;;4953784;29;20249;-83
2021/01/22 13:46:50;;;;;;;62.10;38.90;;;;;;;;;;4957058;29;20601;-84
2021/01/22 13:49:16;;;;;;;62.63;44.77;;;;;;;;;;4955506;28;20195;-84
2021/01/22 13:51:41;;;;;;;69.17;44.17;;;;;;;;;;4956784;29;20206;-84
2021/01/22 13:54:08;;;;;;;73.73;42.10;;;;;;;;;;4955409;28;20186;-83
2021/01/22 13:56:33;;;;;;;77.97;43.80;;;;;;;;;;4955091;28;20662;-84
2021/01/22 13:58:59;;;;;;;71.37;41.63;;;;;;;;;;4957243;29;20186;-83
2021/01/22 14:01:24;;;;;;;60.57;39.50;;;;;;;;;;4956406;28;20233;-83
2021/01/22 14:03:49;;;;;;;61.83;39.90;;;;;;;;;;4956405;29;20623;-84
2021/01/22 14:06:14;;;;;;;70.87;45.47;;;;;;;;;;4956699;29;20262;-85
2021/01/22 14:08:40;;;;;;;104.27;65.87;;;;;;;;;;4956881;29;20270;-84
2021/01/22 14:11:05;;;;;;;113.10;72.13;;;;;;;;;;4939172;29;20298;-84
2021/01/22 14:13:31;;;;;;;130.10;85.13;;;;;;;;;;4955377;28;20206;-84